Time;durP1;ratioP1;P1;durP2;ratioP2;P2;SDS_P1;SDS_P2;PMS_P1;PMS_P2;Temp;Humidity;BMP_temperature;BMP_pressure;BME280_temperature;BME280_humidity;BME280_pressure;Samples;Min_cycle;Max_cycle;Signal;HPM_P1;HPM_P2
2022/03/15 00:00:55;;;;;;;8.18;3.88;;;6.40;99.90;;;;;;5014241;28;20438;-66
2022/03/15 00:03:22;;;;;;;3.83;3.57;;;6.40;99.90;;;;;;5013587;28;20216;-64
2022/03/15 00:05:48;;;;;;;3.42;3.13;;;6.40;99.90;;;;;;5013815;28;20449;-65
2022/03/15 00:08:15;;;;;;;3.58;3.28;;;6.40;99.90;;;;;;5013977;28;20505;-65
2022/03/15 00:10:41;;;;;;;6.10;4.07;;;6.40;99.90;;;;;;5013965;28;20163;-65
2022/03/15 00:13:07;;;;;;;4.43;3.40;;;6.40;99.90;;;;;;5013545;28;20174;-65
2022/03/15 00:15:34;;;;;;;4.20;3.25;;;6.40;99.90;;;;;;5028061;28;20995;-66
2022/03/15 00:17:59;;;;;;;4.15;3.75;;;6.40;99.90;;;;;;5032455;28;20675;-65
2022/03/15 00:20:25;;;;;;;3.77;3.47;;;6.40;99.90;;;;;;5033537;28;20174;-65
2022/03/15 00:22:55;;;;;;;3.50;3.23;;;6.50;99.90;;;;;;5032166;28;20234;-66
2022/03/15 00:25:21;;;;;;;5.45;3.55;;;6.40;99.90;;;;;;5033127;28;20551;-66
2022/03/15 00:27:50;;;;;;;3.80;3.40;;;6.40;99.90;;;;;;5033527;28;20162;-65
2022/03/15 00:30:16;;;;;;;5.20;3.55;;;6.30;99.90;;;;;;5033051;28;20167;-66
2022/03/15 00:32:42;;;;;;;5.07;4.77;;;6.30;99.90;;;;;;5013838;28;20173;-65
2022/03/15 00:35:11;;;;;;;5.32;3.75;;;6.30;99.90;;;;;;5013367;28;20194;-65
2022/03/15 00:37:37;;;;;;;5.57;5.07;;;6.30;99.90;;;;;;5013767;28;20251;-66
2022/03/15 00:40:05;;;;;;;6.22;4.20;;;6.30;99.90;;;;;;5014493;28;20593;-66
2022/03/15 00:42:30;;;;;;;3.85;3.55;;;6.30;99.90;;;;;;5013760;28;20655;-66
2022/03/15 00:44:58;;;;;;;4.23;3.83;;;6.30;99.90;;;;;;5013800;28;20197;-66
2022/03/15 00:47:24;;;;;;;5.07;4.22;;;6.30;99.90;;;;;;5017669;28;20722;-66
2022/03/15 00:49:50;;;;;;;4.40;3.47;;;6.20;99.90;;;;;;5017713;28;20180;-64
2022/03/15 00:52:15;;;;;;;7.30;5.20;;;6.20;99.90;;;;;;5017632;28;20250;-65
2022/03/15 00:54:41;;;;;;;5.40;3.87;;;6.10;99.90;;;;;;5029803;28;20230;-66
2022/03/15 00:57:07;;;;;;;4.20;3.60;;;6.10;99.90;;;;;;5037148;28;20174;-66
2022/03/15 00:59:33;;;;;;;5.95;3.80;;;6.10;99.90;;;;;;5037314;28;20173;-65
2022/03/15 01:01:58;;;;;;;7.33;4.50;;;6.10;99.90;;;;;;5035598;28;20340;-64
2022/03/15 01:04:24;;;;;;;5.00;4.50;;;6.10;99.90;;;;;;5034990;28;20189;-65
2022/03/15 01:06:50;;;;;;;4.30;3.93;;;6.10;99.90;;;;;;5017368;28;20286;-65
2022/03/15 01:09:15;;;;;;;6.13;4.90;;;6.00;99.90;;;;;;5017341;28;20410;-65
2022/03/15 01:11:41;;;;;;;3.57;3.27;;;5.90;99.90;;;;;;5017212;28;20166;-65
2022/03/15 01:14:07;;;;;;;4.83;3.53;;;5.90;99.90;;;;;;5016864;28;20166;-65
2022/03/15 01:16:33;;;;;;;4.00;3.60;;;5.90;99.90;;;;;;5022529;28;20253;-65
2022/03/15 01:18:58;;;;;;;4.80;3.90;;;5.90;99.90;;;;;;5015862;28;20197;-66
2022/03/15 01:21:25;;;;;;;4.50;4.10;;;5.80;99.90;;;;;;5036601;28;20181;-65
2022/03/15 01:23:51;;;;;;;6.57;3.50;;;5.80;99.90;;;;;;5036246;28;20178;-65
2022/03/15 01:26:16;;;;;;;6.30;3.13;;;5.80;99.90;;;;;;5036437;28;20209;-65
2022/03/15 01:28:42;;;;;;;6.90;3.40;;;5.80;99.90;;;;;;5036536;28;20458;-65
2022/03/15 01:31:08;;;;;;;6.53;4.57;;;5.90;99.90;;;;;;5036549;28;20193;-64
2022/03/15 01:33:34;;;;;;;6.33;4.50;;;5.80;99.90;;;;;;5036181;28;20208;-65
2022/03/15 01:35:59;;;;;;;5.73;3.70;;;5.80;99.90;;;;;;5035910;28;20198;-65
2022/03/15 01:38:25;;;;;;;4.10;3.17;;;5.70;99.90;;;;;;5036424;28;20204;-64
2022/03/15 01:40:51;;;;;;;3.97;3.30;;;5.70;99.90;;;;;;5036905;28;20177;-63
2022/03/15 01:43:16;;;;;;;5.03;4.63;;;5.60;99.90;;;;;;5036265;28;20790;-65
2022/03/15 01:45:42;;;;;;;4.80;3.70;;;5.60;99.90;;;;;;5036173;28;20190;-64
2022/03/15 01:48:09;;;;;;;6.30;5.70;;;5.60;99.90;;;;;;5036299;28;20249;-65
2022/03/15 01:50:36;;;;;;;3.90;3.55;;;5.60;99.90;;;;;;5018625;28;20249;-65
2022/03/15 01:53:03;;;;;;;5.45;4.72;;;5.60;99.90;;;;;;5016347;28;20645;-65
2022/03/15 01:55:28;;;;;;;7.70;4.50;;;5.60;99.90;;;;;;5015849;28;20194;-65
2022/03/15 01:57:55;;;;;;;4.17;3.77;;;5.50;99.90;;;;;;5016125;28;20177;-64
2022/03/15 02:00:22;;;;;;;3.50;3.20;;;5.60;99.90;;;;;;5022467;28;20510;-65
2022/03/15 02:02:48;;;;;;;4.38;3.88;;;5.50;99.90;;;;;;5035735;28;20676;-66
2022/03/15 02:05:14;;;;;;;6.03;3.73;;;5.50;99.90;;;;;;5035498;28;20232;-64
2022/03/15 02:07:39;;;;;;;14.50;4.27;;;5.50;99.90;;;;;;5035934;28;20208;-64
2022/03/15 02:10:06;;;;;;;3.50;3.20;;;5.50;99.90;;;;;;5035760;28;20174;-64
2022/03/15 02:12:37;;;;;;;5.43;3.63;;;5.50;99.90;;;;;;5035666;28;20166;-66
2022/03/15 02:15:05;;;;;;;11.20;4.20;;;5.50;99.90;;;;;;5027587;28;20226;-66
2022/03/15 02:17:30;;;;;;;3.80;3.47;;;5.50;99.90;;;;;;5016342;28;20170;-65
2022/03/15 02:19:56;;;;;;;4.50;4.10;;;5.50;99.90;;;;;;5015925;28;20166;-65
2022/03/15 02:22:22;;;;;;;4.95;4.10;;;5.50;99.90;;;;;;5015834;28;20206;-65
2022/03/15 02:24:48;;;;;;;7.63;4.40;;;5.50;99.90;;;;;;5015400;28;20218;-65
2022/03/15 02:27:15;;;;;;;5.53;3.97;;;5.50;99.90;;;;;;5015837;28;20233;-65
2022/03/15 02:29:41;;;;;;;3.35;2.63;;;5.50;99.90;;;;;;5020544;28;20174;-66
2022/03/15 02:32:08;;;;;;;4.82;3.90;;;5.50;99.90;;;;;;5035485;28;20193;-65
2022/03/15 02:34:34;;;;;;;10.85;3.30;;;5.50;99.90;;;;;;5034920;28;20190;-66
2022/03/15 02:37:00;;;;;;;4.32;3.75;;;5.50;99.90;;;;;;5035913;28;20514;-65
2022/03/15 02:39:26;;;;;;;5.60;3.70;;;5.50;99.90;;;;;;5039695;28;20174;-65
2022/03/15 02:41:52;;;;;;;6.50;3.50;;;5.60;99.90;;;;;;5035478;28;20174;-65
2022/03/15 02:44:18;;;;;;;4.80;3.53;;;5.60;99.90;;;;;;5030258;28;20175;-65
2022/03/15 02:46:49;;;;;;;4.33;3.97;;;5.60;99.90;;;;;;5016389;28;20214;-65
2022/03/15 02:49:15;;;;;;;4.60;3.45;;;5.60;99.90;;;;;;5022558;28;20475;-64
2022/03/15 02:51:40;;;;;;;4.00;3.70;;;5.50;99.90;;;;;;5035644;28;20167;-64
2022/03/15 02:54:08;;;;;;;2.43;2.33;;;5.50;99.90;;;;;;5033274;28;20640;-66
2022/03/15 02:56:35;;;;;;;4.60;4.20;;;5.60;99.90;;;;;;5034943;28;20565;-66
2022/03/15 02:59:01;;;;;;;4.88;3.47;;;5.60;99.90;;;;;;5029474;28;20178;-65
2022/03/15 03:01:27;;;;;;;4.27;3.67;;;5.60;99.90;;;;;;5015201;28;20171;-65
2022/03/15 03:03:53;;;;;;;4.10;3.40;;;5.60;99.90;;;;;;5014616;28;20220;-66
2022/03/15 03:06:19;;;;;;;5.93;4.10;;;5.60;99.90;;;;;;5014758;28;20198;-65
2022/03/15 03:08:44;;;;;;;3.77;3.43;;;5.60;99.90;;;;;;5014474;28;20174;-65
2022/03/15 03:11:10;;;;;;;2.60;2.47;;;5.60;99.90;;;;;;5028102;28;20178;-64
2022/03/15 03:13:37;;;;;;;3.67;3.37;;;5.70;99.90;;;;;;5034347;28;20174;-65
2022/03/15 03:16:05;;;;;;;3.60;3.30;;;5.60;99.90;;;;;;5034740;28;20186;-65
2022/03/15 03:18:34;;;;;;;5.03;3.63;;;5.70;99.90;;;;;;5034613;28;20178;-66
2022/03/15 03:21:02;;;;;;;6.30;3.38;;;5.70;99.90;;;;;;5034456;28;20166;-64
2022/03/15 03:23:29;;;;;;;3.95;3.47;;;5.70;99.90;;;;;;5034012;28;20170;-64
2022/03/15 03:25:56;;;;;;;3.60;3.13;;;5.70;99.90;;;;;;5026218;28;20282;-64
2022/03/15 03:28:22;;;;;;;7.43;4.15;;;5.70;99.90;;;;;;5034466;28;20167;-64
2022/03/15 03:30:48;;;;;;;10.15;4.10;;;5.80;99.90;;;;;;5034354;28;20698;-65
2022/03/15 03:33:16;;;;;;;2.95;2.75;;;5.70;99.90;;;;;;5033881;28;20173;-66
2022/03/15 03:35:43;;;;;;;4.00;3.70;;;5.70;99.90;;;;;;5034169;28;20190;-64
2022/03/15 03:38:09;;;;;;;3.95;3.55;;;5.70;99.90;;;;;;5034787;28;20170;-65
2022/03/15 03:40:35;;;;;;;4.00;3.47;;;5.70;99.90;;;;;;5021163;28;20189;-66
2022/03/15 03:43:01;;;;;;;3.90;3.60;;;5.70;99.90;;;;;;5014389;28;20638;-66
2022/03/15 03:45:27;;;;;;;4.13;3.77;;;5.80;99.90;;;;;;5016215;28;20207;-66
2022/03/15 03:47:55;;;;;;;3.77;3.53;;;5.80;99.90;;;;;;5035036;28;20205;-64
2022/03/15 03:50:21;;;;;;;4.20;2.65;;;5.80;99.90;;;;;;5034151;28;20416;-64
2022/03/15 03:52:47;;;;;;;3.50;3.30;;;5.80;99.90;;;;;;5034068;28;20170;-66
2022/03/15 03:55:14;;;;;;;5.80;3.10;;;5.70;99.90;;;;;;5033659;28;20425;-66
2022/03/15 03:57:41;;;;;;;2.95;2.72;;;5.70;99.90;;;;;;5035830;28;20569;-66
2022/03/15 04:00:07;;;;;;;5.72;4.07;;;5.70;99.90;;;;;;5032322;28;20197;-66
2022/03/15 04:02:33;;;;;;;3.20;2.90;;;5.60;99.90;;;;;;5033595;28;20182;-66
2022/03/15 04:04:59;;;;;;;7.80;3.70;;;5.60;99.90;;;;;;5033373;28;20712;-65
2022/03/15 04:07:24;;;;;;;3.83;3.10;;;5.60;99.90;;;;;;5033697;28;20347;-66
2022/03/15 04:09:50;;;;;;;4.23;3.73;;;5.60;99.90;;;;;;5033793;28;20525;-65
2022/03/15 04:12:19;;;;;;;3.92;2.90;;;5.60;99.90;;;;;;5033803;28;20196;-65
2022/03/15 04:14:46;;;;;;;3.83;3.55;;;5.60;99.90;;;;;;5019067;28;20191;-65
2022/03/15 04:17:12;;;;;;;3.90;2.63;;;5.60;99.90;;;;;;5013765;28;20181;-66
2022/03/15 04:19:38;;;;;;;3.17;2.95;;;5.60;99.90;;;;;;5012969;28;20182;-64
2022/03/15 04:22:04;;;;;;;2.90;2.70;;;5.60;99.90;;;;;;5014076;28;20174;-64
2022/03/15 04:24:31;;;;;;;5.20;3.03;;;5.60;99.90;;;;;;5014275;28;20580;-66
2022/03/15 04:26:58;;;;;;;2.45;2.25;;;5.60;99.90;;;;;;5013551;28;20459;-65
2022/03/15 04:29:24;;;;;;;8.43;4.32;;;5.50;99.90;;;;;;5013783;28;20163;-65
2022/03/15 04:31:50;;;;;;;3.63;3.30;;;5.50;99.90;;;;;;5013583;28;20171;-65
2022/03/15 04:34:15;;;;;;;3.43;3.13;;;5.40;99.90;;;;;;5013212;28;20171;-64
2022/03/15 04:36:41;;;;;;;3.77;3.40;;;5.40;99.90;;;;;;5013667;28;20174;-65
2022/03/15 04:39:06;;;;;;;3.10;2.90;;;5.40;99.90;;;;;;5013629;28;20641;-65
2022/03/15 04:41:32;;;;;;;5.03;3.00;;;5.40;99.90;;;;;;5016378;28;20178;-65
2022/03/15 04:43:58;;;;;;;3.20;3.00;;;5.40;99.90;;;;;;5014140;28;20258;-65
2022/03/15 04:46:24;;;;;;;5.00;2.95;;;5.40;99.90;;;;;;5013596;28;20782;-65
2022/03/15 04:48:50;;;;;;;7.93;3.67;;;5.40;99.90;;;;;;5013683;28;20163;-64
2022/03/15 04:51:15;;;;;;;3.27;3.07;;;5.40;99.90;;;;;;5013780;28;20246;-65
2022/03/15 04:53:41;;;;;;;3.10;2.80;;;5.40;99.90;;;;;;5013133;28;20410;-66
2022/03/15 04:56:07;;;;;;;4.47;3.47;;;5.40;99.90;;;;;;5032988;28;20244;-64
2022/03/15 04:58:32;;;;;;;4.20;3.43;;;5.40;99.90;;;;;;5032067;28;20192;-65
2022/03/15 05:00:58;;;;;;;3.20;3.00;;;5.50;99.90;;;;;;5033135;28;20181;-65
2022/03/15 05:03:24;;;;;;;3.30;2.93;;;5.50;99.90;;;;;;5032840;28;20232;-65
2022/03/15 05:05:50;;;;;;;3.70;2.80;;;5.50;99.90;;;;;;5033013;28;20506;-65
2022/03/15 05:08:16;;;;;;;4.90;3.30;;;5.50;99.90;;;;;;5033107;28;20216;-65
2022/03/15 05:13:27;;;;;;;2.90;2.72;;;5.60;99.90;;;;;;5013021;28;20210;-65
2022/03/15 05:15:53;;;;;;;3.30;3.00;;;5.50;99.90;;;;;;5013116;28;20588;-65
2022/03/15 05:18:19;;;;;;;2.83;2.67;;;5.50;99.90;;;;;;5013250;28;20259;-65
2022/03/15 05:20:45;;;;;;;2.33;2.20;;;5.50;99.90;;;;;;5013246;28;20433;-65
2022/03/15 05:23:11;;;;;;;5.83;3.67;;;5.60;99.90;;;;;;5012722;28;20823;-66
2022/03/15 05:25:36;;;;;;;6.63;3.50;;;5.50;99.90;;;;;;5043872;28;20214;-65
2022/03/15 05:28:02;;;;;;;3.13;2.93;;;5.40;99.90;;;;;;5033306;28;20175;-64
2022/03/15 05:30:28;;;;;;;3.50;3.20;;;5.40;99.90;;;;;;5032869;28;20183;-64
2022/03/15 05:32:54;;;;;;;3.40;3.20;;;5.30;99.90;;;;;;5036340;28;20166;-64
2022/03/15 05:35:19;;;;;;;7.10;3.77;;;5.30;99.90;;;;;;5026548;28;20195;-64
2022/03/15 05:37:45;;;;;;;3.50;2.90;;;5.30;99.90;;;;;;5016879;28;20528;-64
2022/03/15 05:40:11;;;;;;;3.43;3.00;;;5.30;99.90;;;;;;5016583;28;20162;-65
2022/03/15 05:42:37;;;;;;;3.45;3.22;;;5.30;99.90;;;;;;5015318;28;20168;-65
2022/03/15 05:45:03;;;;;;;4.30;2.20;;;5.30;99.90;;;;;;5016058;28;20706;-64
2022/03/15 05:47:29;;;;;;;3.60;2.83;;;5.40;99.90;;;;;;5016529;28;20210;-64
2022/03/15 05:49:55;;;;;;;3.00;2.60;;;5.40;99.90;;;;;;5024006;28;20536;-65
2022/03/15 05:52:20;;;;;;;6.37;3.10;;;5.40;99.90;;;;;;5036343;28;20178;-65
2022/03/15 05:54:46;;;;;;;4.73;3.10;;;5.40;99.90;;;;;;5035680;28;20297;-65
2022/03/15 05:57:11;;;;;;;5.73;3.10;;;5.40;99.90;;;;;;5034721;28;20228;-65
2022/03/15 05:59:37;;;;;;;3.50;3.20;;;5.50;99.90;;;;;;5036377;28;20192;-64
2022/03/15 06:02:03;;;;;;;3.30;3.10;;;5.50;99.90;;;;;;5035878;28;20191;-65
2022/03/15 06:04:28;;;;;;;4.90;3.47;;;5.50;99.90;;;;;;5033783;28;20725;-64
2022/03/15 06:06:55;;;;;;;3.57;3.27;;;5.60;99.90;;;;;;5035926;28;20194;-65
2022/03/15 06:09:22;;;;;;;3.13;2.78;;;5.60;99.90;;;;;;5030161;28;20530;-64
2022/03/15 06:11:48;;;;;;;2.38;2.28;;;5.60;99.90;;;;;;5015950;28;20634;-65
2022/03/15 06:14:15;;;;;;;4.93;2.85;;;5.60;99.90;;;;;;5015526;28;20205;-65
2022/03/15 06:16:40;;;;;;;4.05;2.45;;;5.60;99.90;;;;;;5015941;28;20229;-65
2022/03/15 06:19:06;;;;;;;2.20;2.10;;;5.70;99.90;;;;;;5020744;28;20645;-65
2022/03/15 06:21:32;;;;;;;8.50;3.40;;;5.70;99.90;;;;;;5035908;28;20182;-68
2022/03/15 06:23:58;;;;;;;2.63;2.53;;;5.80;99.90;;;;;;5035028;28;20163;-67
2022/03/15 06:26:24;;;;;;;3.60;3.30;;;5.80;99.90;;;;;;5034036;28;20257;-67
2022/03/15 06:28:49;;;;;;;2.50;2.30;;;5.90;99.90;;;;;;5035418;28;20490;-69
2022/03/15 06:31:15;;;;;;;4.70;3.00;;;5.80;99.90;;;;;;5047107;28;20167;-70
2022/03/15 06:33:42;;;;;;;3.17;2.97;;;5.90;99.90;;;;;;5054658;28;20162;-68
2022/03/15 06:36:11;;;;;;;4.03;3.72;;;5.90;99.90;;;;;;5055205;28;20618;-68
2022/03/15 06:38:41;;;;;;;4.82;3.20;;;6.00;99.90;;;;;;5044584;28;20167;-69
2022/03/15 06:41:09;;;;;;;4.45;4.05;;;6.10;99.90;;;;;;5033896;28;20182;-68
2022/03/15 06:43:34;;;;;;;5.90;3.83;;;6.20;99.90;;;;;;5026090;28;20664;-67
2022/03/15 06:46:01;;;;;;;5.20;4.47;;;6.20;99.90;;;;;;5014077;28;20292;-67
2022/03/15 06:48:26;;;;;;;9.00;4.72;;;6.30;99.90;;;;;;5015066;28;20248;-66
2022/03/15 06:50:53;;;;;;;3.67;3.33;;;6.40;99.90;;;;;;5015052;28;20328;-68
2022/03/15 06:53:19;;;;;;;4.57;3.35;;;6.40;99.90;;;;;;5014589;28;20180;-68
2022/03/15 06:55:45;;;;;;;13.83;3.93;;;6.50;99.90;;;;;;5014956;28;20226;-67
2022/03/15 06:58:10;;;;;;;4.73;4.27;;;6.60;99.90;;;;;;5015116;28;20406;-67
2022/03/15 07:00:36;;;;;;;7.13;4.27;;;6.70;99.90;;;;;;5014965;28;20177;-67
2022/03/15 07:03:02;;;;;;;5.27;4.13;;;6.80;99.90;;;;;;5014800;28;20906;-68
2022/03/15 07:05:27;;;;;;;4.53;3.20;;;6.90;99.90;;;;;;5014578;28;20201;-67
2022/03/15 07:07:53;;;;;;;3.17;2.97;;;7.00;99.90;;;;;;5020988;28;20170;-68
2022/03/15 07:10:20;;;;;;;4.90;3.57;;;7.10;99.90;;;;;;5034662;28;20631;-68
2022/03/15 07:12:47;;;;;;;4.25;3.47;;;7.10;99.90;;;;;;5034741;28;20193;-68
2022/03/15 07:15:14;;;;;;;6.38;3.42;;;7.20;99.90;;;;;;5034259;28;20189;-69
2022/03/15 07:17:51;;;;;;;4.03;3.10;;;7.30;99.90;;;;;;5034644;28;20240;-68
2022/03/15 07:20:18;;;;;;;4.22;3.90;;;7.40;99.90;;;;;;5016482;28;20217;-68
2022/03/15 07:22:44;;;;;;;3.38;2.83;;;7.40;99.90;;;;;;5014849;28;20253;-68
2022/03/15 07:25:10;;;;;;;7.38;3.95;;;7.40;99.90;;;;;;5014284;28;20209;-66
2022/03/15 07:27:36;;;;;;;6.03;4.05;;;7.50;99.90;;;;;;5014776;28;20252;-67
2022/03/15 07:30:03;;;;;;;4.05;3.15;;;7.50;99.90;;;;;;5013357;28;20227;-68
2022/03/15 07:32:29;;;;;;;5.88;4.18;;;7.60;99.90;;;;;;5014630;28;20170;-67
2022/03/15 07:34:54;;;;;;;3.60;3.30;;;7.70;99.90;;;;;;5030436;28;20254;-67
2022/03/15 07:37:20;;;;;;;4.03;2.90;;;7.70;99.90;;;;;;5034126;28;20181;-68
2022/03/15 07:39:46;;;;;;;3.30;2.73;;;7.80;99.90;;;;;;5034110;28;20184;-67
2022/03/15 07:42:12;;;;;;;2.93;2.50;;;7.80;99.90;;;;;;5034215;28;20261;-66
2022/03/15 07:44:42;;;;;;;3.30;3.10;;;7.80;99.90;;;;;;5033472;28;20200;-68
2022/03/15 07:47:08;;;;;;;3.47;3.05;;;7.80;99.90;;;;;;5033853;28;20200;-67
2022/03/15 07:49:34;;;;;;;3.78;3.45;;;7.80;99.90;;;;;;5017652;28;20177;-68
2022/03/15 07:52:00;;;;;;;4.45;3.15;;;7.90;99.90;;;;;;5014164;28;20174;-67
2022/03/15 07:54:25;;;;;;;3.83;2.90;;;8.00;99.90;;;;;;5012536;28;20244;-66
2022/03/15 07:56:52;;;;;;;3.73;2.93;;;8.00;99.90;;;;;;5014464;28;20679;-66
2022/03/15 07:59:18;;;;;;;2.80;2.60;;;8.10;99.90;;;;;;5013928;28;20261;-67
2022/03/15 08:01:44;;;;;;;3.63;3.05;;;8.10;99.90;;;;;;5013672;28;20595;-68
2022/03/15 08:04:10;;;;;;;2.80;2.63;;;8.20;99.90;;;;;;5026608;28;20265;-67
2022/03/15 08:06:35;;;;;;;3.70;3.37;;;8.30;99.90;;;;;;5033630;28;20279;-66
2022/03/15 08:09:02;;;;;;;4.80;3.13;;;8.40;99.90;;;;;;5033659;28;20206;-68
2022/03/15 08:11:28;;;;;;;3.35;3.05;;;8.50;99.90;;;;;;5033530;28;20166;-67
2022/03/15 08:13:55;;;;;;;2.92;2.72;;;8.50;99.90;;;;;;5028289;28;20250;-68
2022/03/15 08:16:22;;;;;;;3.47;2.65;;;8.70;99.90;;;;;;5013897;28;20194;-68
2022/03/15 08:18:49;;;;;;;3.45;3.15;;;8.80;99.90;;;;;;5013744;28;20175;-67
2022/03/15 08:21:15;;;;;;;3.22;3.03;;;8.90;99.90;;;;;;5013742;28;20216;-66
2022/03/15 08:23:41;;;;;;;5.18;4.13;;;9.00;99.90;;;;;;5013087;28;20479;-68
2022/03/15 08:26:06;;;;;;;3.57;2.87;;;9.20;99.90;;;;;;5015826;28;20202;-66
2022/03/15 08:28:32;;;;;;;3.20;2.73;;;9.30;99.90;;;;;;5013505;28;20757;-68
2022/03/15 08:30:59;;;;;;;4.67;3.90;;;9.40;99.90;;;;;;5013731;28;20584;-68
2022/03/15 08:33:25;;;;;;;3.08;2.80;;;9.60;99.90;;;;;;5013206;28;20159;-68
2022/03/15 08:35:51;;;;;;;3.67;3.00;;;9.80;99.90;;;;;;5013566;28;20213;-67
2022/03/15 08:38:17;;;;;;;3.17;2.87;;;10.00;99.90;;;;;;5013572;28;20417;-67
2022/03/15 08:40:43;;;;;;;3.67;3.37;;;10.10;99.90;;;;;;5029693;28;20811;-67
2022/03/15 08:43:09;;;;;;;4.07;3.43;;;10.30;99.90;;;;;;5033101;28;20420;-69
2022/03/15 08:45:35;;;;;;;6.20;2.90;;;10.50;99.90;;;;;;5033042;28;20487;-67
2022/03/15 08:48:01;;;;;;;3.60;2.87;;;10.70;99.90;;;;;;5033131;28;20549;-67
2022/03/15 08:50:27;;;;;;;4.83;3.90;;;10.80;99.90;;;;;;5031078;28;20409;-67
2022/03/15 08:52:55;;;;;;;3.42;3.08;;;10.90;99.90;;;;;;5033454;28;20406;-67
2022/03/15 08:55:22;;;;;;;4.17;3.67;;;11.00;99.90;;;;;;5032898;28;20236;-68
2022/03/15 08:57:48;;;;;;;4.05;3.65;;;11.10;99.90;;;;;;5033377;28;20459;-67
2022/03/15 09:00:15;;;;;;;6.30;4.40;;;11.10;99.90;;;;;;5034697;28;20167;-68
2022/03/15 09:02:40;;;;;;;3.87;3.50;;;11.20;99.90;;;;;;5035233;28;20425;-68
2022/03/15 09:05:06;;;;;;;4.57;4.00;;;11.30;99.90;;;;;;5019124;28;20435;-67
2022/03/15 09:07:32;;;;;;;4.43;4.03;;;11.40;99.90;;;;;;5038427;28;20203;-67
2022/03/15 09:09:58;;;;;;;4.40;4.10;;;11.40;99.90;;;;;;5038837;28;20407;-67
2022/03/15 09:12:24;;;;;;;4.87;3.30;;;11.60;99.90;;;;;;5038302;28;20176;-67
2022/03/15 09:14:50;;;;;;;3.50;2.60;;;11.70;99.70;;;;;;5034280;28;20230;-67
2022/03/15 09:17:16;;;;;;;3.10;2.90;;;11.90;99.20;;;;;;5018441;28;20191;-67
2022/03/15 09:19:42;;;;;;;3.80;3.50;;;12.00;98.90;;;;;;5017866;28;20379;-67
2022/03/15 09:22:08;;;;;;;4.23;3.87;;;11.90;98.60;;;;;;5017068;28;20499;-69
2022/03/15 09:24:36;;;;;;;3.23;2.90;;;11.90;99.00;;;;;;5016424;28;21000;-68
2022/03/15 09:27:03;;;;;;;3.25;2.80;;;11.90;98.70;;;;;;5016813;28;20445;-67
2022/03/15 09:29:28;;;;;;;3.40;3.10;;;12.00;98.90;;;;;;5018616;28;20264;-68
2022/03/15 09:31:54;;;;;;;7.07;3.00;;;11.90;98.60;;;;;;5036685;28;20489;-67
2022/03/15 09:34:22;;;;;;;2.73;2.53;;;12.00;99.00;;;;;;5036503;28;20242;-68
2022/03/15 09:36:48;;;;;;;2.83;2.60;;;12.00;98.80;;;;;;5036896;28;20193;-66
2022/03/15 09:39:15;;;;;;;2.50;2.30;;;12.00;98.50;;;;;;5037221;28;20411;-67
2022/03/15 09:41:42;;;;;;;3.00;2.80;;;11.90;98.50;;;;;;5036537;28;20434;-67
2022/03/15 09:44:09;;;;;;;2.57;2.10;;;11.90;99.00;;;;;;5034163;28;20469;-66
2022/03/15 09:46:55;;;;;;;2.63;2.00;;;12.10;98.80;;;;;;5016130;28;20858;-68
2022/03/15 09:49:22;;;;;;;2.03;1.90;;;12.10;99.10;;;;;;5015905;28;20435;-67
2022/03/15 09:51:48;;;;;;;2.30;2.10;;;12.10;99.40;;;;;;5016471;28;20429;-68
2022/03/15 09:54:15;;;;;;;1.97;1.87;;;12.10;99.70;;;;;;5015838;28;20412;-67
2022/03/15 09:56:42;;;;;;;2.40;2.20;;;12.20;99.90;;;;;;5030292;28;20909;-68
2022/03/15 09:59:16;;;;;;;2.70;2.50;;;12.10;99.90;;;;;;5030041;28;20767;-66
2022/03/15 10:01:43;;;;;;;1.73;1.63;;;12.10;99.90;;;;;;5016312;28;20379;-66
2022/03/15 10:04:09;;;;;;;2.50;2.30;;;12.10;99.90;;;;;;5015971;28;20454;-67
2022/03/15 10:06:37;;;;;;;2.20;2.10;;;12.10;99.90;;;;;;5016225;28;20451;-68
2022/03/15 10:09:04;;;;;;;2.73;1.80;;;12.10;99.90;;;;;;5017290;28;20419;-69
2022/03/15 10:11:29;;;;;;;2.30;2.17;;;12.10;99.90;;;;;;5016046;28;20407;-68
2022/03/15 10:13:55;;;;;;;2.00;1.80;;;12.10;99.90;;;;;;5014431;28;20393;-68
2022/03/15 10:16:22;;;;;;;2.40;2.20;;;12.10;99.90;;;;;;5014816;28;20563;-66
2022/03/15 10:18:55;;;;;;;2.20;2.10;;;12.10;99.90;;;;;;5014682;28;20456;-67
2022/03/15 10:21:24;;;;;;;1.80;1.43;;;12.20;99.90;;;;;;5015908;28;20408;-67
2022/03/15 10:23:56;;;;;;;2.87;1.63;;;12.20;99.90;;;;;;5021776;28;20812;-66
2022/03/15 10:26:26;;;;;;;3.07;1.97;;;12.20;99.90;;;;;;5035447;28;20459;-67
2022/03/15 10:28:54;;;;;;;3.07;1.50;;;12.10;99.90;;;;;;5035838;28;20374;-68
2022/03/15 10:31:24;;;;;;;3.90;2.00;;;12.20;99.90;;;;;;5035325;28;20497;-68
2022/03/15 10:33:54;;;;;;;3.37;2.53;;;12.20;99.90;;;;;;5035105;28;20418;-68
2022/03/15 10:36:24;;;;;;;13.13;1.97;;;12.20;99.90;;;;;;5020633;28;20474;-67
2022/03/15 10:38:51;;;;;;;1.77;1.67;;;12.10;99.90;;;;;;5014353;28;20416;-66
2022/03/15 10:41:18;;;;;;;2.03;1.73;;;12.10;99.90;;;;;;5015466;28;20391;-68
2022/03/15 10:43:44;;;;;;;3.27;2.00;;;12.10;99.90;;;;;;5015012;28;20934;-68
2022/03/15 10:46:13;;;;;;;2.33;1.47;;;12.20;99.90;;;;;;5015248;28;20460;-68
2022/03/15 10:48:39;;;;;;;2.27;2.07;;;12.30;99.90;;;;;;5015218;28;20173;-67
2022/03/15 10:51:13;;;;;;;2.43;2.23;;;12.40;99.90;;;;;;5032995;28;20494;-67
2022/03/15 10:53:44;;;;;;;3.17;2.87;;;12.40;99.90;;;;;;5034624;28;20902;-68
2022/03/15 10:56:20;;;;;;;8.33;2.87;;;12.40;99.90;;;;;;5034919;28;20427;-67
2022/03/15 10:58:53;;;;;;;9.32;4.05;;;12.40;99.90;;;;;;5021926;28;20835;-67
2022/03/15 11:01:24;;;;;;;3.30;2.58;;;12.20;99.90;;;;;;5014986;28;20183;-67
2022/03/15 11:03:58;;;;;;;4.90;3.47;;;11.90;99.90;;;;;;5014611;28;20183;-67
2022/03/15 11:06:32;;;;;;;2.40;2.20;;;11.70;99.90;;;;;;5014894;28;20970;-65
2022/03/15 11:08:59;;;;;;;5.78;4.70;;;11.60;99.90;;;;;;5013801;28;20181;-66
2022/03/15 11:11:27;;;;;;;3.35;3.00;;;11.40;99.90;;;;;;5015033;28;20521;-66
2022/03/15 11:14:06;;;;;;;4.80;2.80;;;11.50;99.90;;;;;;5029640;28;20181;-66
2022/03/15 11:16:36;;;;;;;3.30;3.10;;;11.50;99.90;;;;;;5034616;28;20216;-66
2022/03/15 11:19:03;;;;;;;7.68;2.90;;;11.50;99.90;;;;;;5034634;28;20198;-67
2022/03/15 11:21:33;;;;;;;4.35;2.80;;;11.30;99.90;;;;;;5034671;28;20703;-66
2022/03/15 11:24:00;;;;;;;3.03;2.70;;;11.30;99.90;;;;;;5025508;28;20218;-66
2022/03/15 11:26:31;;;;;;;2.92;2.67;;;11.20;99.90;;;;;;5014702;28;20198;-68
2022/03/15 11:28:57;;;;;;;2.88;2.67;;;11.10;99.90;;;;;;5014256;28;20178;-66
2022/03/15 11:31:24;;;;;;;2.95;2.78;;;11.00;99.90;;;;;;5014595;28;20167;-67
2022/03/15 11:33:50;;;;;;;5.28;3.28;;;10.80;99.90;;;;;;5014142;28;20258;-66
2022/03/15 11:36:17;;;;;;;3.67;2.53;;;10.70;99.90;;;;;;5013280;28;20210;-68
2022/03/15 11:38:43;;;;;;;3.40;3.08;;;10.60;99.90;;;;;;5012677;28;20522;-65
2022/03/15 11:41:10;;;;;;;4.53;3.07;;;10.50;99.90;;;;;;5014594;28;20645;-65
2022/03/15 11:44:14;;;;;;;3.05;2.75;;;10.40;99.90;;;;;;5014039;28;20194;-66
2022/03/15 11:46:58;;;;;;;3.15;2.95;;;10.40;99.90;;;;;;5018044;28;20194;-66
2022/03/15 11:49:45;;;;;;;4.25;3.17;;;10.30;99.90;;;;;;5034031;28;20613;-65
2022/03/15 11:52:23;;;;;;;4.75;2.85;;;10.10;99.90;;;;;;5034367;28;20634;-66
2022/03/15 11:54:59;;;;;;;3.45;2.97;;;10.10;99.90;;;;;;5033651;28;20197;-66
2022/03/15 11:57:30;;;;;;;3.35;3.08;;;10.10;99.90;;;;;;5033893;28;20195;-66
2022/03/15 12:00:00;;;;;;;3.58;3.10;;;10.10;99.90;;;;;;5019074;28;20182;-67
2022/03/15 12:02:32;;;;;;;3.58;3.28;;;10.00;99.90;;;;;;5014158;28;20193;-68
2022/03/15 12:04:58;;;;;;;2.60;2.40;;;10.00;99.90;;;;;;5013632;28;20194;-70
2022/03/15 12:07:47;;;;;;;2.80;2.60;;;10.00;99.90;;;;;;5012686;28;20202;-65
2022/03/15 12:10:26;;;;;;;4.45;3.20;;;10.00;99.90;;;;;;5014122;28;20465;-66
2022/03/15 12:13:03;;;;;;;3.13;2.80;;;10.00;99.90;;;;;;5021304;28;20204;-66
2022/03/15 12:15:35;;;;;;;3.55;2.97;;;10.00;99.90;;;;;;5033316;28;20217;-67
2022/03/15 12:18:09;;;;;;;3.17;2.90;;;10.10;99.90;;;;;;5033444;28;20660;-67
2022/03/15 12:20:47;;;;;;;4.68;3.30;;;10.10;99.90;;;;;;5032329;28;20232;-66
2022/03/15 12:23:23;;;;;;;3.05;2.85;;;10.10;99.90;;;;;;5033083;28;20533;-65
2022/03/15 12:25:56;;;;;;;4.53;3.00;;;10.10;99.90;;;;;;5033572;28;20201;-67
2022/03/15 12:28:30;;;;;;;3.55;3.28;;;10.20;99.90;;;;;;5019160;28;20840;-68
2022/03/15 12:31:07;;;;;;;7.70;3.92;;;10.20;99.90;;;;;;5013759;28;20756;-66
2022/03/15 12:33:34;;;;;;;5.53;3.58;;;10.20;99.90;;;;;;5013356;28;20635;-67
2022/03/15 12:36:06;;;;;;;3.35;2.80;;;10.30;99.90;;;;;;5013650;28;20193;-67
2022/03/15 12:38:36;;;;;;;4.07;3.67;;;10.30;99.90;;;;;;5025583;28;20169;-68
2022/03/15 12:41:04;;;;;;;4.55;3.45;;;10.20;99.90;;;;;;5052919;28;20181;-68
2022/03/15 12:43:31;;;;;;;3.90;3.58;;;10.20;99.90;;;;;;5034636;28;20186;-68
2022/03/15 12:46:02;;;;;;;4.53;3.55;;;10.10;99.90;;;;;;5033089;28;20221;-67
2022/03/15 12:48:30;;;;;;;3.17;2.75;;;10.10;99.90;;;;;;5033253;28;20166;-67
2022/03/15 12:50:59;;;;;;;6.35;4.30;;;10.10;99.90;;;;;;5033174;28;20636;-66
2022/03/15 12:53:35;;;;;;;6.28;4.30;;;10.10;99.90;;;;;;5031819;28;20277;-67
2022/03/15 12:56:02;;;;;;;3.30;3.03;;;10.10;99.90;;;;;;5013446;28;20609;-65